createdAt,value
2019-05-10T00:00:14.183Z,10.50
2019-05-10T00:03:00.617Z,10.40
2019-05-10T00:05:47.715Z,10.50
2019-05-10T00:08:34.606Z,10.50
2019-05-10T00:11:04.978Z,10.40
2019-05-10T00:13:48.709Z,10.40
2019-05-10T00:16:17.786Z,10.40
2019-05-10T00:18:46.192Z,10.40
2019-05-10T00:21:14.594Z,10.40
2019-05-10T00:23:43.004Z,10.40
2019-05-10T00:26:11.405Z,10.40
2019-05-10T00:28:39.818Z,10.40
2019-05-10T00:31:08.289Z,10.40
2019-05-10T00:33:36.696Z,10.30
2019-05-10T00:36:05.106Z,10.30
2019-05-10T00:38:33.506Z,10.30
2019-05-10T00:41:01.924Z,10.30
2019-05-10T00:43:30.325Z,10.30
2019-05-10T00:45:58.733Z,10.20
2019-05-10T00:48:27.134Z,10.20
2019-05-10T00:50:55.547Z,10.20
2019-05-10T00:53:23.950Z,10.20
2019-05-10T00:55:52.358Z,10.20
2019-05-10T00:58:20.757Z,10.20
2019-05-10T01:00:49.161Z,10.20
2019-05-10T01:03:17.566Z,10.20
2019-05-10T01:05:45.973Z,10.20
2019-05-10T01:08:14.396Z,10.20
2019-05-10T01:10:42.801Z,10.20
2019-05-10T01:13:11.205Z,10.20
2019-05-10T01:15:39.706Z,10.20
2019-05-10T01:18:08.110Z,10.20
2019-05-10T01:20:36.525Z,10.20
2019-05-10T01:23:04.933Z,10.20
2019-05-10T01:25:35.625Z,10.20
2019-05-10T01:28:03.564Z,10.20
2019-05-10T01:30:32.042Z,10.20
2019-05-10T01:33:00.885Z,10.20
2019-05-10T01:35:29.284Z,10.20
2019-05-10T01:37:57.692Z,10.20
2019-05-10T01:40:26.114Z,10.20
2019-05-10T01:42:54.523Z,10.20
2019-05-10T01:45:22.926Z,10.20
2019-05-10T01:47:51.329Z,10.20
2019-05-10T01:50:19.736Z,10.30
2019-05-10T01:52:48.142Z,10.30
2019-05-10T01:55:16.551Z,10.20
2019-05-10T01:57:44.955Z,10.20
2019-05-10T02:00:13.898Z,10.30
2019-05-10T02:02:42.313Z,10.30
2019-05-10T02:05:11.058Z,10.30
2019-05-10T02:07:39.551Z,10.30
2019-05-10T02:10:08.986Z,10.30
2019-05-10T02:12:37.695Z,10.30
2019-05-10T02:15:09.763Z,10.30
2019-05-10T02:17:38.175Z,10.30
2019-05-10T02:20:07.222Z,10.40
2019-05-10T02:22:36.158Z,10.30
2019-05-10T02:25:05.306Z,10.20
2019-05-10T02:27:33.721Z,10.30
2019-05-10T02:30:02.135Z,10.30
2019-05-10T02:32:30.527Z,10.30
2019-05-10T02:34:58.936Z,10.30
2019-05-10T02:37:27.339Z,10.20
2019-05-10T02:39:55.746Z,10.20
2019-05-10T02:42:24.146Z,10.10
2019-05-10T02:44:52.583Z,10.10
2019-05-10T02:47:20.987Z,10.10
2019-05-10T02:49:49.395Z,10.10
2019-05-10T02:52:17.871Z,10.10
2019-05-10T02:54:46.346Z,10.10
2019-05-10T02:57:15.523Z,10.10
2019-05-10T02:59:44.939Z,10.10
2019-05-10T03:02:14.584Z,10.00
2019-05-10T03:04:45.921Z,10.00
2019-05-10T03:07:18.039Z,10.00
2019-05-10T03:09:48.925Z,10.00
2019-05-10T03:12:26.885Z,9.90
2019-05-10T03:14:59.013Z,9.80
2019-05-10T03:17:28.350Z,9.80
2019-05-10T03:19:56.996Z,9.80
2019-05-10T03:22:26.072Z,9.80
2019-05-10T03:24:54.987Z,9.80
2019-05-10T03:27:23.535Z,9.70
2019-05-10T03:29:52.484Z,9.70
2019-05-10T03:32:20.956Z,9.70
2019-05-10T03:34:49.433Z,9.70
2019-05-10T03:37:18.061Z,9.80
2019-05-10T03:39:46.638Z,9.80
2019-05-10T03:42:15.288Z,9.80
2019-05-10T03:44:43.750Z,9.80
2019-05-10T03:47:12.149Z,9.70
2019-05-10T03:49:40.554Z,9.70
2019-05-10T03:52:08.954Z,9.70
2019-05-10T03:54:37.382Z,9.70
2019-05-10T03:57:14.653Z,9.70
2019-05-10T03:59:35.900Z,9.70
2019-05-10T04:02:04.305Z,9.70
2019-05-10T04:04:32.783Z,9.70
2019-05-10T04:07:01.226Z,9.70
2019-05-10T04:09:29.677Z,9.70
2019-05-10T04:11:58.102Z,9.70
2019-05-10T04:14:26.507Z,9.70
2019-05-10T04:16:54.910Z,9.80
2019-05-10T04:19:23.310Z,9.80
2019-05-10T04:21:51.774Z,9.80
2019-05-10T04:24:20.350Z,9.90
2019-05-10T04:26:48.748Z,9.90
2019-05-10T04:29:17.158Z,9.90
2019-05-10T04:31:45.558Z,9.90
2019-05-10T04:34:13.962Z,9.90
2019-05-10T04:36:42.379Z,9.90
2019-05-10T04:39:10.773Z,9.90
2019-05-10T04:41:39.177Z,9.90
2019-05-10T04:44:07.575Z,9.90
2019-05-10T04:46:35.969Z,9.90
2019-05-10T04:49:04.387Z,9.90
2019-05-10T04:51:32.799Z,10.00
2019-05-10T04:54:01.203Z,10.00
2019-05-10T04:56:29.958Z,10.10
2019-05-10T04:58:58.470Z,10.10
2019-05-10T05:01:26.881Z,10.10
2019-05-10T05:03:55.270Z,10.20
2019-05-10T05:06:23.730Z,10.20
2019-05-10T05:08:52.141Z,10.30
2019-05-10T05:11:20.569Z,10.40
2019-05-10T05:13:48.981Z,10.50
2019-05-10T05:16:17.398Z,10.50
2019-05-10T05:18:45.847Z,10.60
2019-05-10T05:21:14.262Z,10.60
2019-05-10T05:23:42.661Z,10.70
2019-05-10T05:26:11.066Z,10.70
2019-05-10T05:28:39.468Z,10.60
2019-05-10T05:31:08.649Z,10.60
2019-05-10T05:33:37.093Z,10.60
2019-05-10T05:36:05.510Z,10.70
2019-05-10T05:38:33.914Z,10.90
2019-05-10T05:41:02.333Z,10.90
2019-05-10T05:43:30.734Z,10.90
2019-05-10T05:45:59.147Z,10.80
2019-05-10T05:48:39.516Z,10.70
2019-05-10T05:50:57.812Z,10.70
2019-05-10T05:53:26.220Z,10.70
2019-05-10T05:55:54.636Z,10.70
2019-05-10T05:58:27.150Z,10.70
2019-05-10T06:00:53.183Z,10.80
2019-05-10T06:03:27.599Z,10.80
2019-05-10T06:05:51.901Z,10.80
2019-05-10T06:08:23.573Z,10.90
2019-05-10T06:10:57.378Z,11.00
2019-05-10T06:13:23.323Z,11.10
2019-05-10T06:15:50.733Z,11.20
2019-05-10T06:18:19.138Z,11.20
2019-05-10T06:20:47.654Z,11.40
2019-05-10T06:23:16.049Z,11.90
2019-05-10T06:25:44.470Z,12.30
2019-05-10T06:28:26.382Z,12.50
2019-05-10T06:30:43.175Z,12.40
2019-05-10T06:33:13.277Z,12.20
2019-05-10T06:35:41.919Z,12.00
2019-05-10T06:38:10.317Z,11.90
2019-05-10T06:40:46.565Z,12.00
2019-05-10T06:43:13.484Z,12.10
2019-05-10T06:45:39.004Z,12.30
2019-05-10T06:48:07.406Z,12.30
2019-05-10T06:50:35.815Z,12.30
2019-05-10T06:53:07.757Z,12.20
2019-05-10T06:55:34.346Z,12.30
2019-05-10T06:58:02.755Z,12.20
2019-05-10T07:00:31.211Z,12.30
2019-05-10T07:02:59.621Z,12.40
2019-05-10T07:05:28.037Z,12.60
2019-05-10T07:08:00.628Z,12.80
2019-05-10T07:10:26.603Z,12.70
2019-05-10T07:12:57.007Z,13.00
2019-05-10T07:15:25.233Z,13.00
2019-05-10T07:17:53.640Z,13.10
2019-05-10T07:20:23.762Z,13.20
2019-05-10T07:22:52.177Z,13.50
2019-05-10T07:25:20.568Z,14.50
2019-05-10T07:27:50.380Z,15.40
2019-05-10T07:30:36.387Z,15.50
2019-05-10T07:33:05.141Z,16.00
2019-05-10T07:35:36.834Z,16.40
2019-05-10T07:38:04.138Z,17.40
2019-05-10T07:40:32.541Z,18.80
2019-05-10T07:43:00.941Z,19.40
2019-05-10T07:45:29.354Z,19.40
2019-05-10T07:48:02.512Z,19.50
2019-05-10T07:50:27.886Z,19.50
2019-05-10T07:52:56.301Z,19.50
2019-05-10T07:55:28.210Z,18.90
2019-05-10T07:57:59.122Z,18.30
2019-05-10T08:00:25.559Z,18.70
2019-05-10T08:03:00.829Z,18.20
2019-05-10T08:05:24.210Z,18.60
2019-05-10T08:07:52.617Z,18.40
2019-05-10T08:10:21.443Z,19.40
2019-05-10T08:12:50.121Z,20.30
2019-05-10T08:15:19.489Z,21.20
2019-05-10T08:17:50.690Z,21.40
2019-05-10T08:20:30.689Z,21.00
2019-05-10T08:22:48.730Z,20.80
2019-05-10T08:25:17.139Z,19.20
2019-05-10T08:27:50.708Z,18.20
2019-05-10T08:30:26.251Z,17.30
2019-05-10T08:32:48.895Z,16.40
2019-05-10T08:35:18.842Z,16.70
2019-05-10T08:37:47.382Z,16.20
2019-05-10T08:40:19.605Z,16.00
2019-05-10T08:42:54.264Z,16.20
2019-05-10T08:45:16.267Z,18.00
2019-05-10T08:47:44.735Z,19.90
2019-05-10T08:50:28.751Z,19.70
2019-05-10T08:52:43.432Z,18.90
2019-05-10T08:55:12.449Z,19.20
2019-05-10T09:00:41.420Z,18.30
2019-05-10T09:03:00.975Z,17.10
2019-05-10T09:05:29.405Z,16.60
2019-05-10T09:07:58.065Z,18.10
2019-05-10T09:10:26.469Z,20.10
2019-05-10T09:12:58.202Z,22.10
2019-05-10T09:15:25.014Z,21.90
2019-05-10T09:17:53.528Z,21.90
2019-05-10T09:20:26.386Z,22.20
2019-05-10T09:22:52.805Z,21.90
2019-05-10T09:25:29.176Z,21.40
2019-05-10T09:27:53.177Z,21.50
2019-05-10T09:30:32.439Z,20.90
2019-05-10T09:33:08.319Z,20.70
2019-05-10T09:35:33.003Z,22.50
2019-05-10T09:38:02.017Z,24.00
2019-05-10T09:40:32.776Z,23.30
2019-05-10T09:43:05.267Z,22.30
2019-05-10T09:45:32.423Z,20.20
2019-05-10T09:48:02.456Z,19.40
2019-05-10T09:50:41.040Z,20.20
2019-05-10T09:53:01.439Z,21.70
2019-05-10T09:55:29.859Z,22.10
2019-05-10T09:57:58.463Z,22.60
2019-05-10T10:00:37.712Z,23.40
2019-05-10T10:03:08.002Z,22.90
2019-05-10T10:05:39.914Z,22.70
2019-05-10T10:08:09.028Z,23.60
2019-05-10T10:10:37.123Z,23.50
2019-05-10T10:13:11.748Z,23.80
2019-05-10T10:15:37.321Z,23.50
2019-05-10T10:18:06.356Z,24.00
2019-05-10T10:20:40.633Z,23.50
2019-05-10T10:23:07.324Z,23.90
2019-05-10T10:25:40.455Z,25.20
2019-05-10T10:28:08.238Z,25.10
2019-05-10T10:30:37.289Z,24.40
2019-05-10T10:33:11.355Z,22.50
2019-05-10T10:35:37.761Z,21.80
2019-05-10T10:38:08.033Z,20.90
2019-05-10T10:40:44.354Z,20.30
2019-05-10T10:43:07.534Z,19.60
2019-05-10T10:45:37.681Z,19.50
2019-05-10T10:48:08.474Z,20.50
2019-05-10T10:50:37.291Z,22.50
2019-05-10T10:53:08.030Z,24.00
2019-05-10T10:55:40.296Z,23.30
2019-05-10T10:58:22.062Z,22.70
2019-05-10T11:00:51.336Z,20.90
2019-05-10T11:03:24.113Z,19.90
2019-05-10T11:05:50.105Z,19.50
2019-05-10T11:08:18.505Z,19.20
2019-05-10T11:10:46.917Z,19.00
2019-05-10T11:13:23.747Z,18.60
2019-05-10T11:15:45.468Z,18.10
2019-05-10T11:18:13.945Z,19.50
2019-05-10T11:20:49.291Z,19.60
2019-05-10T11:23:15.943Z,21.10
2019-05-10T11:25:50.407Z,22.10
2019-05-10T11:28:12.750Z,22.20
2019-05-10T11:30:41.158Z,22.40
2019-05-10T11:33:25.454Z,23.00
2019-05-10T11:35:41.721Z,22.90
2019-05-10T11:38:12.913Z,22.30
2019-05-10T11:40:41.864Z,21.30
2019-05-10T11:43:10.087Z,20.80
2019-05-10T11:45:41.973Z,20.60
2019-05-10T11:48:10.826Z,20.40
2019-05-10T11:50:40.918Z,20.40
2019-05-10T11:53:13.328Z,20.30
2019-05-10T11:55:42.753Z,20.20
2019-05-10T11:58:23.606Z,20.00
2019-05-10T12:00:55.683Z,20.10
2019-05-10T12:03:23.150Z,20.70
2019-05-10T12:05:53.258Z,21.00
2019-05-10T12:08:22.170Z,20.90
2019-05-10T12:10:59.384Z,20.20
2019-05-10T12:13:24.440Z,19.60
2019-05-10T12:15:52.084Z,20.00
2019-05-10T12:18:26.665Z,20.70
2019-05-10T12:20:58.604Z,20.20
2019-05-10T12:23:30.150Z,20.10
2019-05-10T12:26:17.888Z,20.40
2019-05-10T12:28:27.281Z,21.00
2019-05-10T12:30:51.144Z,22.00
2019-05-10T12:33:25.290Z,21.80
2019-05-10T12:35:51.014Z,22.10
2019-05-10T12:38:23.542Z,22.10
2019-05-10T12:40:51.380Z,21.80
2019-05-10T12:43:21.080Z,21.40
2019-05-10T12:45:51.841Z,21.60
2019-05-10T12:48:23.277Z,21.50
2019-05-10T12:50:54.413Z,21.40
2019-05-10T12:53:21.490Z,21.20
2019-05-10T12:55:50.289Z,21.60
2019-05-10T12:58:18.738Z,21.00
2019-05-10T13:00:52.695Z,20.70
2019-05-10T13:03:19.357Z,20.30
2019-05-10T13:05:52.520Z,19.60
2019-05-10T13:08:17.582Z,20.30
2019-05-10T13:10:49.707Z,20.90
2019-05-10T13:13:17.615Z,20.90
2019-05-10T13:15:46.244Z,21.30
2019-05-10T13:18:14.662Z,21.40
2019-05-10T13:20:43.128Z,22.00
2019-05-10T13:23:15.969Z,22.10
2019-05-10T13:25:42.545Z,22.30
2019-05-10T13:28:11.793Z,22.40
2019-05-10T13:30:40.496Z,22.10
2019-05-10T13:33:09.039Z,21.30
2019-05-10T13:35:37.533Z,20.50
2019-05-10T13:38:06.534Z,19.90
2019-05-10T13:40:38.923Z,19.40
2019-05-10T13:43:05.260Z,19.20
2019-05-10T13:45:37.916Z,18.90
2019-05-10T13:48:03.878Z,19.00
2019-05-10T13:50:32.277Z,19.10
2019-05-10T13:53:00.689Z,18.70
2019-05-10T13:55:29.235Z,18.60
2019-05-10T13:57:57.630Z,18.30
2019-05-10T14:00:33.159Z,18.10
2019-05-10T14:02:56.910Z,18.60
2019-05-10T14:05:25.380Z,19.50
2019-05-10T14:07:54.065Z,19.70
2019-05-10T14:10:25.194Z,20.00
2019-05-10T14:12:56.007Z,19.70
2019-05-10T14:15:24.304Z,19.90
2019-05-10T14:17:52.741Z,19.80
2019-05-10T14:20:25.089Z,19.20
2019-05-10T14:22:55.628Z,18.70
2019-05-10T14:25:21.606Z,18.60
2019-05-10T14:27:50.015Z,18.50
2019-05-10T14:30:18.710Z,18.50
2019-05-10T14:32:47.154Z,18.30
2019-05-10T14:35:16.541Z,18.10
2019-05-10T14:37:48.160Z,18.30
2019-05-10T14:40:16.912Z,18.60
2019-05-10T14:42:46.530Z,18.90
2019-05-10T14:45:15.304Z,19.00
2019-05-10T14:47:47.792Z,19.10
2019-05-10T14:50:19.304Z,19.10
2019-05-10T14:52:45.193Z,19.00
2019-05-10T14:55:14.091Z,18.70
2019-05-10T14:57:42.625Z,18.40
2019-05-10T15:00:11.516Z,17.90
2019-05-10T15:02:40.196Z,17.80
2019-05-10T15:05:15.946Z,17.70
2019-05-10T15:07:39.143Z,17.50
2019-05-10T15:10:07.810Z,17.20
2019-05-10T15:12:36.232Z,17.00
2019-05-10T15:15:06.478Z,16.90
2019-05-10T15:17:34.878Z,16.80
2019-05-10T15:20:05.123Z,16.50
2019-05-10T15:22:33.530Z,16.50
2019-05-10T15:25:01.963Z,16.40
2019-05-10T15:27:30.434Z,16.00
2019-05-10T15:30:05.096Z,16.00
2019-05-10T15:32:29.048Z,16.00
2019-05-10T15:35:06.226Z,15.90
2019-05-10T15:37:27.758Z,16.00
2019-05-10T15:40:00.532Z,16.00
2019-05-10T15:42:30.403Z,16.00
2019-05-10T15:44:56.582Z,16.10
2019-05-10T15:47:24.991Z,16.20
2019-05-10T15:49:59.354Z,16.50
2019-05-10T15:52:23.680Z,16.70
2019-05-10T15:54:52.294Z,16.90
2019-05-10T15:57:22.009Z,17.00
2019-05-10T15:59:56.283Z,17.10
2019-05-10T16:02:20.869Z,17.30
2019-05-10T16:04:49.282Z,17.30
2019-05-10T16:07:17.811Z,17.30
2019-05-10T16:09:49.923Z,17.40
2019-05-10T16:12:16.342Z,17.50
2019-05-10T16:14:45.739Z,17.30
2019-05-10T16:17:17.559Z,17.10
2019-05-10T16:19:44.473Z,17.20
2019-05-10T16:22:12.882Z,17.10
2019-05-10T16:24:41.294Z,17.10
2019-05-10T16:27:09.698Z,16.90
2019-05-10T16:29:39.687Z,16.80
2019-05-10T16:32:09.221Z,16.40
2019-05-10T16:34:37.629Z,16.30
2019-05-10T16:37:06.126Z,16.00
2019-05-10T16:39:34.638Z,16.00
2019-05-10T16:42:03.103Z,15.90
2019-05-10T16:44:31.554Z,15.80
2019-05-10T16:46:59.959Z,15.80
2019-05-10T16:49:28.376Z,15.70
2019-05-10T16:51:56.790Z,15.70
2019-05-10T16:54:27.309Z,15.60
2019-05-10T16:56:59.325Z,15.40
2019-05-10T16:59:29.985Z,15.40
2019-05-10T17:02:03.495Z,15.40
2019-05-10T17:04:25.781Z,15.40
2019-05-10T17:06:56.588Z,15.30
2019-05-10T17:09:24.374Z,15.20
2019-05-10T17:11:52.941Z,15.20
2019-05-10T17:14:21.358Z,15.10
2019-05-10T17:16:58.278Z,15.10
2019-05-10T17:19:19.907Z,15.10
2019-05-10T17:21:48.305Z,15.00
2019-05-10T17:24:18.638Z,15.00
2019-05-10T17:26:46.840Z,14.90
2019-05-10T17:29:15.290Z,14.90
2019-05-10T17:31:45.772Z,14.80
2019-05-10T17:34:22.122Z,14.80
2019-05-10T17:36:43.962Z,14.80
2019-05-10T17:39:12.390Z,14.70
2019-05-10T17:41:40.853Z,14.70
2019-05-10T17:44:09.249Z,14.70
2019-05-10T17:46:37.661Z,14.70
2019-05-10T17:49:06.069Z,14.60
2019-05-10T17:51:34.469Z,14.70
2019-05-10T17:54:03.777Z,14.70
2019-05-10T17:56:32.861Z,14.60
2019-05-10T17:59:05.776Z,14.60
2019-05-10T18:01:33.019Z,14.60
2019-05-10T18:04:01.421Z,14.50
2019-05-10T18:06:29.874Z,14.30
2019-05-10T18:08:58.277Z,14.20
2019-05-10T18:11:26.749Z,14.10
2019-05-10T18:13:55.193Z,14.00
2019-05-10T18:16:23.625Z,13.90
2019-05-10T18:18:52.053Z,13.90
2019-05-10T18:21:22.086Z,13.90
2019-05-10T18:23:52.644Z,13.80
2019-05-10T18:26:20.813Z,13.80
2019-05-10T18:28:49.212Z,13.70
2019-05-10T18:31:17.641Z,13.60
2019-05-10T18:33:54.330Z,13.50
2019-05-10T18:36:16.178Z,13.50
2019-05-10T18:38:44.657Z,13.40
2019-05-10T18:41:13.087Z,13.40
2019-05-10T18:43:42.961Z,13.30
2019-05-10T18:46:11.766Z,13.20
2019-05-10T18:48:40.187Z,13.10
2019-05-10T18:51:08.589Z,13.00
2019-05-10T18:53:37.030Z,12.90
2019-05-10T18:56:05.483Z,12.70
2019-05-10T18:58:33.898Z,12.60
2019-05-10T19:01:02.560Z,12.60
2019-05-10T19:03:33.809Z,12.50
2019-05-10T19:06:04.085Z,12.40
2019-05-10T19:08:31.379Z,12.20
2019-05-10T19:10:59.847Z,12.00
2019-05-10T19:13:32.447Z,11.90
2019-05-10T19:15:58.820Z,11.80
2019-05-10T19:18:27.490Z,11.70
2019-05-10T19:20:55.902Z,11.60
2019-05-10T19:23:24.591Z,11.60
2019-05-10T19:25:53.864Z,11.60
2019-05-10T19:28:26.954Z,11.50
2019-05-10T19:30:58.464Z,11.50
2019-05-10T19:33:22.903Z,11.50
2019-05-10T19:35:51.309Z,11.40
2019-05-10T19:38:19.745Z,11.40
2019-05-10T19:40:48.149Z,11.30
2019-05-10T19:43:21.567Z,11.10
2019-05-10T19:45:51.154Z,11.10
2019-05-10T19:48:16.816Z,11.00
2019-05-10T19:50:45.240Z,10.90
2019-05-10T19:53:13.654Z,10.70
2019-05-10T19:55:42.153Z,10.60
2019-05-10T19:58:10.569Z,10.50
2019-05-10T20:00:39.005Z,10.40
2019-05-10T20:03:07.484Z,10.30
2019-05-10T20:05:36.057Z,10.30
2019-05-10T20:08:04.633Z,10.10
2019-05-10T20:10:33.052Z,10.00
2019-05-10T20:13:01.523Z,9.90
2019-05-10T20:15:29.931Z,9.90
2019-05-10T20:17:58.391Z,9.70
2019-05-10T20:20:26.859Z,9.60
2019-05-10T20:22:55.322Z,9.50
2019-05-10T20:25:23.742Z,9.50
2019-05-10T20:27:52.145Z,9.60
2019-05-10T20:30:20.820Z,9.50
2019-05-10T20:32:49.219Z,9.30
2019-05-10T20:35:17.647Z,9.20
2019-05-10T20:38:00.666Z,9.20
2019-05-10T20:40:17.674Z,9.10
2019-05-10T20:42:46.073Z,9.10
2019-05-10T20:45:15.438Z,9.00
2019-05-10T20:47:43.854Z,8.90
2019-05-10T20:50:13.825Z,9.10
2019-05-10T20:52:42.229Z,9.10
2019-05-10T20:55:11.056Z,9.00
2019-05-10T20:57:39.749Z,9.00
2019-05-10T21:00:08.690Z,9.00
2019-05-10T21:02:37.095Z,8.80
2019-05-10T21:05:06.769Z,8.80
2019-05-10T21:07:35.176Z,8.70
2019-05-10T21:10:04.369Z,8.70
2019-05-10T21:12:32.939Z,8.80
2019-05-10T21:15:01.403Z,8.90
2019-05-10T21:17:29.815Z,9.00
2019-05-10T21:19:58.202Z,9.00
2019-05-10T21:22:26.606Z,9.10
2019-05-10T21:24:55.002Z,9.20
2019-05-10T21:27:23.418Z,9.20
2019-05-10T21:29:51.812Z,9.30
2019-05-10T21:32:20.223Z,9.30
2019-05-10T21:34:48.623Z,9.40
2019-05-10T21:37:17.089Z,9.40
2019-05-10T21:39:45.535Z,9.50
2019-05-10T21:42:14.006Z,9.50
2019-05-10T21:44:42.416Z,9.60
2019-05-10T21:47:10.875Z,9.70
2019-05-10T21:49:39.266Z,9.80
2019-05-10T21:52:07.666Z,9.70
2019-05-10T21:54:36.130Z,9.70
2019-05-10T21:57:04.633Z,9.70
2019-05-10T21:59:33.073Z,9.70
2019-05-10T22:02:01.468Z,9.60
2019-05-10T22:04:29.924Z,9.60
2019-05-10T22:06:58.366Z,9.50
2019-05-10T22:09:26.969Z,9.50
2019-05-10T22:11:55.496Z,9.60
2019-05-10T22:14:23.937Z,9.60
2019-05-10T22:16:52.375Z,9.60
2019-05-10T22:19:20.810Z,9.70
2019-05-10T22:21:49.335Z,9.80
2019-05-10T22:24:17.770Z,9.70
2019-05-10T22:26:46.222Z,9.70
2019-05-10T22:29:14.665Z,9.70
2019-05-10T22:31:43.106Z,9.70
2019-05-10T22:34:11.546Z,9.70
2019-05-10T22:36:40.098Z,9.60
2019-05-10T22:39:08.543Z,9.60
2019-05-10T22:41:36.983Z,9.60
2019-05-10T22:44:05.429Z,9.60
2019-05-10T22:46:33.946Z,9.60
2019-05-10T22:49:02.645Z,9.60
2019-05-10T22:51:31.090Z,9.60
2019-05-10T22:54:00.406Z,9.60
2019-05-10T22:56:29.058Z,9.60
2019-05-10T22:58:57.565Z,9.60
2019-05-10T23:01:26.021Z,9.60
2019-05-10T23:03:54.469Z,9.50
2019-05-10T23:06:22.921Z,9.50
2019-05-10T23:08:51.439Z,9.40
2019-05-10T23:11:19.889Z,9.40
2019-05-10T23:13:48.328Z,9.40
2019-05-10T23:16:16.770Z,9.40
2019-05-10T23:18:45.209Z,9.40
2019-05-10T23:21:13.657Z,9.40
2019-05-10T23:23:42.106Z,9.30
2019-05-10T23:26:10.586Z,9.30
2019-05-10T23:28:39.066Z,9.30
2019-05-10T23:31:07.497Z,9.30
2019-05-10T23:33:35.949Z,9.30
2019-05-10T23:36:04.467Z,9.30
2019-05-10T23:38:32.897Z,9.30
2019-05-10T23:41:01.383Z,9.40
2019-05-10T23:43:29.862Z,9.40
2019-05-10T23:45:58.306Z,9.50
2019-05-10T23:48:26.750Z,9.60
2019-05-10T23:50:55.194Z,9.60
2019-05-10T23:53:23.634Z,9.70
2019-05-10T23:55:52.073Z,9.70
2019-05-10T23:58:20.520Z,9.70
